Time;durP1;ratioP1;P1;durP2;ratioP2;P2;SDS_P1;SDS_P2;PMS_P1;PMS_P2;Temp;Humidity;BMP_temperature;BMP_pressure;BME280_temperature;BME280_humidity;BME280_pressure;Samples;Min_cycle;Max_cycle;Signal;HPM_P1;HPM_P2
2021/12/03 00:02:21;;;;;;;4.60;3.33;;;;;;;4.31;75.96;100072.59;5049240;28;20025;-52
2021/12/03 00:04:46;;;;;;;4.95;3.20;;;;;;;4.28;75.60;100076.06;5048397;28;20020;-50
2021/12/03 00:07:11;;;;;;;4.00;3.35;;;;;;;4.29;76.00;100082.16;5031942;28;20108;-50
2021/12/03 00:09:37;;;;;;;4.53;3.63;;;;;;;4.28;75.40;100088.25;5049549;28;20017;-51
2021/12/03 00:12:04;;;;;;;6.13;3.67;;;;;;;4.26;75.92;100082.16;5049442;28;20379;-51
2021/12/03 00:14:29;;;;;;;6.38;4.20;;;;;;;4.27;74.96;100091.72;5052665;28;20037;-51
2021/12/03 00:16:54;;;;;;;7.05;3.97;;;;;;;4.26;75.57;100096.06;5052686;28;20029;-50
2021/12/03 00:19:20;;;;;;;4.90;3.53;;;;;;;4.25;75.85;100089.09;5053026;28;20116;-52
2021/12/03 00:21:45;;;;;;;6.20;3.45;;;;;;;4.24;75.57;100092.59;5053680;28;20025;-52
2021/12/03 00:24:10;;;;;;;3.95;2.88;;;;;;;4.24;76.06;100092.59;5053084;28;20066;-52
2021/12/03 00:26:35;;;;;;;4.10;3.10;;;;;;;4.24;75.94;100096.03;5036202;28;20029;-52
2021/12/03 00:29:01;;;;;;;4.10;2.95;;;;;;;4.23;75.48;100096.91;5052011;28;20037;-52
2021/12/03 00:31:26;;;;;;;3.17;2.85;;;;;;;4.23;75.06;100104.75;5048374;28;20130;-52
2021/12/03 00:33:51;;;;;;;3.60;3.00;;;;;;;4.21;75.72;100096.03;5052825;28;20447;-52
2021/12/03 00:36:17;;;;;;;4.90;3.30;;;;;;;4.22;75.93;100104.72;5051441;28;20049;-53
2021/12/03 00:38:45;;;;;;;5.38;3.20;;;;;;;4.21;76.12;100103.84;5052593;28;20035;-53
2021/12/03 00:41:14;;;;;;;3.95;2.83;;;;;;;4.19;76.22;100095.16;5035239;28;20077;-54
2021/12/03 00:43:43;;;;;;;3.33;3.03;;;;;;;4.20;75.40;100101.25;5052012;28;20116;-53
2021/12/03 00:46:11;;;;;;;4.03;3.25;;;;;;;4.18;75.29;100093.41;5051055;28;20400;-54
2021/12/03 00:48:38;;;;;;;3.90;3.20;;;;;;;4.18;75.42;100090.81;5052429;28;20132;-52
2021/12/03 00:51:04;;;;;;;4.50;2.72;;;;;;;4.18;75.43;100092.53;5051756;28;20025;-54
2021/12/03 00:53:29;;;;;;;4.13;2.97;;;;;;;4.18;75.47;100088.19;5052070;28;20082;-52
2021/12/03 00:55:54;;;;;;;3.60;2.92;;;;;;;4.15;75.45;100082.94;5052620;28;20032;-52
2021/12/03 00:58:19;;;;;;;4.93;2.90;;;;;;;4.11;75.27;100070.72;5034642;28;20039;-51
2021/12/03 01:00:45;;;;;;;3.40;2.72;;;;;;;4.15;75.69;100080.31;5051984;28;20021;-52
2021/12/03 01:03:10;;;;;;;3.22;2.70;;;;;;;4.16;76.00;100068.13;5053088;28;20028;-52
2021/12/03 01:05:35;;;;;;;3.40;2.50;;;;;;;4.16;75.39;100078.56;5032726;28;20028;-52
2021/12/03 01:08:01;;;;;;;4.03;2.75;;;;;;;4.15;75.88;100082.06;5051367;28;20303;-51
2021/12/03 01:10:27;;;;;;;3.20;2.88;;;;;;;4.12;75.20;100080.31;5051978;28;20111;-52
2021/12/03 01:12:54;;;;;;;5.28;3.20;;;;;;;4.13;75.13;100084.66;5034551;28;20025;-51
2021/12/03 01:15:25;;;;;;;6.75;3.25;;;;;;;4.13;75.61;100091.63;5051055;28;20493;-51
2021/12/03 01:17:50;;;;;;;;;;;;;;;4.12;74.63;100106.41;5052324;28;20048;-52
2021/12/03 01:20:16;;;;;;;4.05;2.55;;;;;;;4.10;74.98;100098.56;5051624;28;19921;-52
2021/12/03 01:22:43;;;;;;;3.30;2.67;;;;;;;4.10;75.51;100095.94;5047760;28;20333;-54
2021/12/03 01:25:10;;;;;;;3.90;2.95;;;;;;;4.11;75.62;100109.88;5047836;28;20029;-53
2021/12/03 01:27:35;;;;;;;5.90;3.42;;;;;;;4.09;75.49;100102.03;5033311;28;20020;-53
2021/12/03 01:30:01;;;;;;;4.70;3.20;;;;;;;4.07;74.60;100100.28;5051865;28;20953;-52
2021/12/03 01:32:26;;;;;;;3.75;3.00;;;;;;;4.08;75.40;100094.19;5052021;28;20031;-53
2021/12/03 01:34:52;;;;;;;3.67;2.85;;;;;;;4.07;75.34;100100.28;5031198;28;20467;-52
2021/12/03 01:37:17;;;;;;;3.63;2.80;;;;;;;4.07;75.37;100100.28;5051759;28;20021;-52
2021/12/03 01:39:43;;;;;;;4.15;3.03;;;;;;;4.08;75.17;100104.63;5051769;28;20100;-53
2021/12/03 01:42:08;;;;;;;4.38;3.22;;;;;;;4.06;74.93;100109.84;5081320;22;20554;-52
2021/12/03 01:44:34;;;;;;;3.08;2.45;;;;;;;4.03;75.46;100091.53;5070945;28;20035;-55
2021/12/03 01:46:59;;;;;;;4.50;2.92;;;;;;;4.04;74.91;100105.47;5051270;28;20047;-54
2021/12/03 01:49:24;;;;;;;4.53;3.42;;;;;;;4.04;75.54;100105.47;5070584;28;20032;-54
2021/12/03 01:51:50;;;;;;;4.28;3.65;;;;;;;4.03;75.75;100108.94;5051690;28;20050;-54
2021/12/03 01:54:15;;;;;;;4.25;3.47;;;;;;;4.03;75.25;100111.56;5067902;28;20021;-53
2021/12/03 01:56:41;;;;;;;3.58;3.25;;;;;;;4.01;75.30;100111.53;5070408;28;20426;-53
2021/12/03 01:59:07;;;;;;;5.05;3.08;;;;;;;3.98;75.26;100109.75;5069971;28;20024;-52
2021/12/03 02:01:33;;;;;;;4.25;3.03;;;;;;;3.99;74.38;100102.81;5070836;28;20139;-52
2021/12/03 02:04:00;;;;;;;4.57;3.20;;;;;;;4.01;75.56;100108.94;5070612;28;20016;-52
2021/12/03 02:06:27;;;;;;;3.58;3.08;;;;;;;4.01;75.74;100115.88;5066570;28;20036;-52
2021/12/03 02:08:54;;;;;;;4.07;3.67;;;;;;;3.98;75.13;100121.94;5067364;28;20482;-52
2021/12/03 02:11:19;;;;;;;5.28;3.75;;;;;;;4.01;75.64;100131.53;5066484;28;20043;-52
2021/12/03 02:13:45;;;;;;;5.03;3.60;;;;;;;3.98;75.13;100117.56;5052946;28;20028;-52
2021/12/03 02:16:12;;;;;;;4.28;3.83;;;;;;;3.96;75.08;100124.53;5068525;28;20443;-52
2021/12/03 02:18:37;;;;;;;5.18;4.25;;;;;;;3.96;75.16;100124.53;5070025;28;20036;-53
2021/12/03 02:21:05;;;;;;;4.43;3.40;;;;;;;3.95;74.56;100133.22;5067001;28;20028;-53
2021/12/03 02:23:30;;;;;;;4.78;3.60;;;;;;;3.97;74.98;100125.41;5067299;28;20097;-52
2021/12/03 02:25:57;;;;;;;6.75;3.78;;;;;;;3.95;74.66;100125.41;5067132;28;20604;-52
2021/12/03 02:28:25;;;;;;;6.18;3.88;;;;;;;3.94;75.05;100123.63;5069569;28;20090;-51
2021/12/03 02:30:51;;;;;;;4.53;3.75;;;;;;;3.94;75.37;100121.03;5070560;28;20031;-51
2021/12/03 02:33:17;;;;;;;4.03;3.40;;;;;;;3.92;75.18;100116.66;5068783;28;20079;-52
2021/12/03 02:35:44;;;;;;;4.22;3.20;;;;;;;3.88;75.24;100110.53;5069921;28;20024;-54
2021/12/03 02:38:12;;;;;;;4.97;3.85;;;;;;;3.92;75.42;100120.16;5070042;28;20040;-52
2021/12/03 02:40:37;;;;;;;4.70;3.53;;;;;;;3.92;75.19;100127.97;5069580;28;20047;-55
2021/12/03 02:43:04;;;;;;;6.95;4.28;;;;;;;3.92;75.50;100130.59;5068824;28;20430;-52
2021/12/03 02:45:29;;;;;;;4.22;3.50;;;;;;;3.91;75.43;100139.28;5065588;28;20025;-51
2021/12/03 02:47:56;;;;;;;4.40;3.80;;;;;;;3.89;75.44;100138.38;5070362;28;20565;-51
2021/12/03 02:50:21;;;;;;;6.10;4.00;;;;;;;3.92;75.35;100140.13;5067701;28;20586;-53
2021/12/03 02:52:49;;;;;;;4.55;3.72;;;;;;;3.87;74.68;100129.66;5069617;28;20111;-50
2021/12/03 02:55:15;;;;;;;4.32;3.65;;;;;;;3.89;75.20;100132.28;5066961;28;20025;-52
2021/12/03 02:57:40;;;;;;;4.43;3.55;;;;;;;3.88;75.62;100131.44;5052189;28;20103;-52
2021/12/03 03:00:10;;;;;;;4.53;3.85;;;;;;;3.87;74.65;100129.66;5067034;28;20498;-54
2021/12/03 03:02:35;;;;;;;5.50;3.90;;;;;;;3.85;75.41;100131.38;5035995;28;20028;-52
2021/12/03 03:05:00;;;;;;;5.43;3.90;;;;;;;3.86;75.64;100127.91;5068949;28;20122;-52
2021/12/03 03:07:29;;;;;;;5.10;3.80;;;;;;;3.84;75.26;100116.59;5050052;28;20025;-54
2021/12/03 03:09:54;;;;;;;4.68;3.97;;;;;;;3.85;75.07;100120.94;5047764;28;20028;-54
2021/12/03 03:12:19;;;;;;;4.03;2.95;;;;;;;3.84;75.54;100121.81;5068143;28;20077;-54
2021/12/03 03:14:56;;;;;;;6.50;3.95;;;;;;;3.84;75.00;100114.00;5047347;28;20052;-52
2021/12/03 03:17:24;;;;;;;5.45;3.72;;;;;;;3.82;75.06;100116.59;5069393;28;20028;-54
2021/12/03 03:19:50;;;;;;;5.53;3.80;;;;;;;3.83;75.47;100113.09;5049703;28;20067;-52
2021/12/03 03:22:15;;;;;;;5.47;3.80;;;;;;;3.82;75.74;100113.09;5050268;28;20028;-54
2021/12/03 03:24:41;;;;;;;5.40;3.70;;;;;;;3.81;75.26;100103.53;5050598;28;20442;-54
2021/12/03 03:27:07;;;;;;;4.60;3.72;;;;;;;3.80;74.75;100107.00;5067904;28;20115;-54
2021/12/03 03:29:32;;;;;;;5.10;4.05;;;;;;;3.80;73.58;100112.22;5068520;28;20030;-54
2021/12/03 03:31:58;;;;;;;5.82;3.88;;;;;;;3.83;75.25;100122.66;5066474;28;20025;-54
2021/12/03 03:34:23;;;;;;;6.95;4.25;;;;;;;3.79;74.89;100116.53;5049792;28;20380;-54
2021/12/03 03:36:48;;;;;;;4.00;3.55;;;;;;;3.79;74.72;100118.28;5049568;28;20024;-54
2021/12/03 03:39:14;;;;;;;5.45;3.88;;;;;;;3.77;74.78;100106.97;5066407;28;20020;-54
2021/12/03 03:41:40;;;;;;;4.88;3.63;;;;;;;3.77;74.09;100114.78;5067128;28;20032;-54
2021/12/03 03:44:07;;;;;;;4.65;3.90;;;;;;;3.77;74.52;100115.66;5050718;28;20035;-54
2021/12/03 03:46:32;;;;;;;7.07;4.88;;;;;;;3.72;74.78;100110.41;5068709;28;20460;-54
2021/12/03 03:48:57;;;;;;;4.97;3.97;;;;;;;3.74;74.49;100117.38;5067662;28;20086;-54
2021/12/03 03:51:24;;;;;;;6.00;4.20;;;;;;;3.76;74.85;100126.94;5070868;28;20052;-54
2021/12/03 03:53:49;;;;;;;6.85;4.55;;;;;;;3.75;75.10;100130.44;5053902;28;20025;-52
2021/12/03 03:56:14;;;;;;;5.82;4.68;;;;;;;3.71;74.92;100139.94;5072452;28;20051;-53
2021/12/03 03:58:41;;;;;;;7.10;4.13;;;;;;;3.70;73.93;100135.59;5069048;28;20035;-52
2021/12/03 04:01:08;;;;;;;5.60;4.40;;;;;;;3.71;74.50;100137.31;5048507;28;20115;-53
2021/12/03 04:03:33;;;;;;;6.65;4.68;;;;;;;3.72;73.90;100152.13;5071309;28;20369;-54
2021/12/03 04:05:59;;;;;;;5.47;4.28;;;;;;;3.71;74.06;100144.28;5054050;28;20522;-51
2021/12/03 04:08:28;;;;;;;5.25;3.90;;;;;;;3.72;74.13;100154.75;5077548;28;20047;-53
2021/12/03 04:10:54;;;;;;;7.78;4.10;;;;;;;3.70;74.24;100150.38;5070967;28;20029;-54
2021/12/03 04:13:19;;;;;;;5.32;4.00;;;;;;;3.67;74.85;100145.97;5071493;28;20032;-54
2021/12/03 04:15:44;;;;;;;6.65;3.95;;;;;;;3.70;73.68;100148.63;5071206;28;20029;-53
2021/12/03 04:18:10;;;;;;;6.45;4.85;;;;;;;3.67;73.99;100156.41;5071574;28;20017;-54
2021/12/03 04:20:36;;;;;;;5.70;4.32;;;;;;;3.67;74.06;100168.59;5069827;28;20035;-54
2021/12/03 04:23:01;;;;;;;5.68;4.30;;;;;;;3.65;74.76;100165.97;5071702;28;20033;-53
2021/12/03 04:25:27;;;;;;;5.53;4.28;;;;;;;3.66;73.68;100172.94;5052684;28;20478;-52
2021/12/03 04:27:52;;;;;;;4.72;3.88;;;;;;;3.65;73.99;100176.41;5070730;28;20107;-53
2021/12/03 04:30:24;;;;;;;8.50;4.80;;;;;;;3.64;74.21;100174.66;5070139;28;20523;-52
2021/12/03 04:32:54;;;;;;;5.68;4.22;;;;;;;3.64;73.11;100181.59;5053008;28;20046;-53
2021/12/03 04:35:19;;;;;;;6.68;4.40;;;;;;;3.63;74.14;100172.03;5070017;28;20086;-52
2021/12/03 04:37:45;;;;;;;4.97;4.47;;;;;;;3.61;74.27;100179.84;5052634;28;20017;-52
2021/12/03 04:40:12;;;;;;;6.25;4.65;;;;;;;3.60;73.47;100183.28;5071996;28;20095;-54
2021/12/03 04:42:38;;;;;;;6.18;4.35;;;;;;;3.60;74.33;100178.06;5047492;28;20020;-53
2021/12/03 04:45:05;;;;;;;6.78;4.50;;;;;;;3.58;73.45;100169.34;5071754;28;20397;-54
2021/12/03 04:47:30;;;;;;;6.13;4.53;;;;;;;3.58;73.91;100171.97;5039406;28;20024;-51
2021/12/03 04:49:56;;;;;;;5.10;4.10;;;;;;;3.59;73.60;100171.09;5052675;28;20024;-51
2021/12/03 04:52:21;;;;;;;6.10;4.82;;;;;;;3.58;73.60;100171.97;5070043;28;20399;-52
2021/12/03 04:54:46;;;;;;;6.50;5.00;;;;;;;3.58;73.48;100180.69;5070771;28;20361;-53
2021/12/03 04:57:12;;;;;;;7.43;4.85;;;;;;;3.60;73.31;100178.06;5070375;28;20020;-51
2021/12/03 04:59:37;;;;;;;7.03;4.85;;;;;;;3.61;73.66;100181.56;5036991;28;20480;-54
2021/12/03 05:02:03;;;;;;;6.32;5.20;;;;;;;3.58;74.17;100180.69;5052676;28;20021;-54
2021/12/03 05:04:36;;;;;;;5.80;5.03;;;;;;;3.55;73.05;100179.75;5050061;28;20064;-52
2021/12/03 05:07:06;;;;;;;7.07;5.28;;;;;;;3.55;74.78;100187.56;5068787;28;21118;-52
2021/12/03 05:09:31;;;;;;;6.97;4.78;;;;;;;3.53;73.10;100194.53;5072141;28;20032;-52
2021/12/03 05:11:58;;;;;;;9.45;5.10;;;;;;;3.57;74.16;100201.53;5048614;28;20032;-50
2021/12/03 05:14:23;;;;;;;6.68;4.90;;;;;;;3.52;73.69;100200.56;5037497;28;20283;-52
2021/12/03 05:16:48;;;;;;;8.52;5.65;;;;;;;3.54;73.25;100212.75;5069984;28;20458;-53
2021/12/03 05:19:15;;;;;;;6.00;5.25;;;;;;;3.52;73.18;100209.28;5069386;28;20020;-52
2021/12/03 05:21:41;;;;;;;9.02;5.22;;;;;;;3.50;73.29;100217.94;5051051;28;20027;-52
2021/12/03 05:24:07;;;;;;;5.60;4.30;;;;;;;3.51;73.93;100211.88;5068749;28;20025;-53
2021/12/03 05:26:32;;;;;;;6.97;5.35;;;;;;;3.51;74.31;100215.34;5050941;28;20037;-52
2021/12/03 05:28:57;;;;;;;6.38;4.85;;;;;;;3.51;73.52;100214.47;5067254;28;20480;-53
2021/12/03 05:31:23;;;;;;;7.65;5.63;;;;;;;3.49;73.63;100218.78;5069642;28;20099;-53
2021/12/03 05:33:48;;;;;;;9.00;5.45;;;;;;;3.52;73.81;100208.41;5071412;28;20024;-52
2021/12/03 05:36:13;;;;;;;7.32;4.95;;;;;;;3.51;73.96;100211.88;5069856;28;20435;-53
2021/12/03 05:38:40;;;;;;;9.07;5.45;;;;;;;3.46;73.16;100204.88;5070157;28;20472;-52
2021/12/03 05:41:05;;;;;;;8.35;5.53;;;;;;;3.50;73.55;100217.94;5071401;28;20036;-52
2021/12/03 05:43:30;;;;;;;6.75;5.15;;;;;;;3.49;73.27;100221.38;5050195;28;20024;-52
2021/12/03 05:45:56;;;;;;;6.88;5.47;;;;;;;3.47;73.88;100214.44;5050302;28;20028;-53
2021/12/03 05:48:21;;;;;;;8.40;6.55;;;;;;;3.44;73.70;100218.75;5070431;28;20476;-53
2021/12/03 05:50:47;;;;;;;9.18;5.93;;;;;;;3.47;73.87;100222.25;5050242;28;20052;-52
2021/12/03 05:53:13;;;;;;;8.23;5.50;;;;;;;3.48;73.38;100233.56;5066944;28;20091;-52
2021/12/03 05:55:38;;;;;;;8.05;4.82;;;;;;;3.44;74.21;100227.41;5053824;28;20488;-51
2021/12/03 05:58:04;;;;;;;7.20;5.45;;;;;;;3.46;74.27;100236.16;5071463;28;20095;-51
2021/12/03 06:00:35;;;;;;;7.28;5.93;;;;;;;3.44;74.84;100237.84;5042188;28;20032;-54
2021/12/03 06:03:00;;;;;;;8.60;5.43;;;;;;;3.41;74.41;100240.44;5071744;28;20078;-51
2021/12/03 06:05:28;;;;;;;7.22;5.38;;;;;;;3.43;74.05;100241.31;5049817;28;20020;-53
2021/12/03 06:07:53;;;;;;;7.55;5.85;;;;;;;3.42;74.00;100242.19;5068409;28;20583;-52
2021/12/03 06:10:19;;;;;;;6.50;5.45;;;;;;;3.44;73.75;100243.06;5050527;28;20027;-51
2021/12/03 06:12:45;;;;;;;6.63;5.00;;;;;;;3.44;74.46;100240.47;5049213;28;20028;-51
2021/12/03 06:15:11;;;;;;;9.10;5.88;;;;;;;3.43;73.59;100243.94;5052117;28;20055;-52
2021/12/03 06:17:36;;;;;;;7.97;5.93;;;;;;;3.40;74.05;100248.25;5050363;28;20021;-53
2021/12/03 06:20:03;;;;;;;8.27;5.95;;;;;;;3.40;73.85;100238.66;5052169;28;20110;-52
2021/12/03 06:22:28;;;;;;;7.78;5.55;;;;;;;3.34;74.07;100233.38;5050401;28;20396;-53
2021/12/03 06:24:53;;;;;;;8.65;6.55;;;;;;;3.38;73.53;100240.41;5067596;28;20031;-51
2021/12/03 06:27:19;;;;;;;8.95;6.18;;;;;;;3.37;73.33;100246.44;5068543;28;20028;-52
2021/12/03 06:29:44;;;;;;;8.98;6.25;;;;;;;3.36;73.01;100247.31;5049323;28;20103;-52
2021/12/03 06:32:10;;;;;;;7.72;5.88;;;;;;;3.36;73.22;100255.13;5051724;28;20017;-52
2021/12/03 06:34:37;;;;;;;8.90;6.20;;;;;;;3.38;73.69;100250.81;5069928;28;20055;-53
2021/12/03 06:37:02;;;;;;;9.30;5.82;;;;;;;3.36;73.86;100255.13;5035378;28;20056;-52
2021/12/03 06:39:28;;;;;;;9.93;5.82;;;;;;;3.34;74.32;100255.09;5071129;28;20515;-53
2021/12/03 06:41:53;;;;;;;7.28;6.10;;;;;;;3.34;74.00;100257.72;5069617;28;20032;-53
2021/12/03 06:44:18;;;;;;;10.32;6.70;;;;;;;3.33;73.31;100265.50;5051775;28;20028;-50
2021/12/03 06:46:44;;;;;;;8.52;6.45;;;;;;;3.31;74.34;100265.47;5067286;28;20012;-52
2021/12/03 06:49:09;;;;;;;8.90;5.93;;;;;;;3.31;72.87;100269.84;5048420;28;20037;-52
2021/12/03 06:51:41;;;;;;;8.50;6.07;;;;;;;3.37;73.17;100269.91;5036082;28;20103;-52
2021/12/03 06:54:08;;;;;;;9.63;6.00;;;;;;;3.37;73.28;100263.84;5069052;28;20024;-52
2021/12/03 06:56:44;;;;;;;8.32;6.07;;;;;;;3.34;73.42;100264.69;5065921;28;21494;-52
2021/12/03 06:59:10;;;;;;;9.95;6.43;;;;;;;3.34;72.73;100264.69;5071095;28;20024;-52
2021/12/03 07:01:37;;;;;;;9.43;5.78;;;;;;;3.29;73.34;100263.72;5088362;22;20043;-54
2021/12/03 07:04:03;;;;;;;8.88;6.32;;;;;;;3.31;72.79;100269.84;5044846;28;20040;-52
2021/12/03 07:06:29;;;;;;;8.02;6.13;;;;;;;3.32;73.20;100266.38;5043504;28;20023;-53
2021/12/03 07:08:57;;;;;;;9.05;5.88;;;;;;;3.31;72.92;100275.06;5042481;28;20040;-52
2021/12/03 07:11:26;;;;;;;7.80;5.70;;;;;;;3.36;73.22;100273.38;5043228;28;20104;-54
2021/12/03 07:13:51;;;;;;;8.38;6.60;;;;;;;3.32;72.52;100282.00;5029308;28;20108;-53
2021/12/03 07:16:23;;;;;;;8.60;5.90;;;;;;;3.28;72.90;100280.22;5024573;28;20124;-51
2021/12/03 07:18:48;;;;;;;9.38;6.18;;;;;;;3.26;72.80;100281.91;5029966;28;20440;-52
2021/12/03 07:21:16;;;;;;;8.05;5.38;;;;;;;3.29;72.78;100276.75;5042936;28;20025;-52
2021/12/03 07:23:41;;;;;;;6.90;5.40;;;;;;;3.28;72.59;100275.00;5047491;28;20037;-53
2021/12/03 07:26:07;;;;;;;7.88;5.95;;;;;;;3.29;73.58;100281.97;5022833;28;20031;-54
2021/12/03 07:28:33;;;;;;;8.23;5.40;;;;;;;3.27;72.72;100288.91;5036260;28;20029;-54
2021/12/03 07:30:58;;;;;;;8.00;5.85;;;;;;;3.26;72.89;100287.13;5042721;28;20456;-54
2021/12/03 07:33:24;;;;;;;6.38;4.68;;;;;;;3.29;73.14;100287.16;5041740;28;20017;-54
2021/12/03 07:35:49;;;;;;;8.73;4.93;;;;;;;3.29;73.03;100293.28;5042781;28;20028;-51
2021/12/03 07:38:17;;;;;;;6.90;5.07;;;;;;;3.31;72.93;100286.34;5026535;28;20033;-54
2021/12/03 07:40:45;;;;;;;6.35;4.95;;;;;;;3.31;72.92;100296.75;5022478;28;20035;-54
2021/12/03 07:43:11;;;;;;;6.43;4.25;;;;;;;3.33;72.76;100299.41;5004879;28;20025;-54
2021/12/03 07:45:39;;;;;;;6.25;5.10;;;;;;;3.34;73.62;100302.03;5041174;28;20052;-54
2021/12/03 07:48:05;;;;;;;7.97;5.13;;;;;;;3.32;73.81;100300.25;5016984;28;20749;-54
2021/12/03 07:50:34;;;;;;;6.93;5.45;;;;;;;3.31;72.45;100301.13;5022974;28;20508;-54
2021/12/03 07:52:59;;;;;;;7.78;5.90;;;;;;;3.29;72.95;100297.59;5040993;28;20041;-53
2021/12/03 07:55:25;;;;;;;6.68;5.20;;;;;;;3.31;72.81;100311.56;5037655;28;20752;-54
2021/12/03 07:57:55;;;;;;;6.60;4.47;;;;;;;3.32;73.46;100311.56;5026077;28;20473;-53
2021/12/03 08:00:20;;;;;;;6.32;4.65;;;;;;;3.31;73.05;100312.41;5020766;28;20124;-53
2021/12/03 08:02:46;;;;;;;6.25;5.00;;;;;;;3.31;72.82;100311.56;5028213;28;20105;-54
2021/12/03 08:05:14;;;;;;;8.02;5.25;;;;;;;3.31;72.79;100311.56;5002626;28;20035;-53
2021/12/03 08:07:46;;;;;;;8.27;5.13;;;;;;;3.30;73.38;100320.22;5028904;28;20079;-53
2021/12/03 08:10:14;;;;;;;5.90;4.50;;;;;;;3.28;73.76;100317.59;5041332;28;20025;-53
2021/12/03 08:12:40;;;;;;;7.82;4.45;;;;;;;3.28;72.59;100319.31;5045375;28;20062;-54
2021/12/03 08:15:06;;;;;;;7.10;4.78;;;;;;;3.27;72.93;100333.22;5043177;28;20024;-54
2021/12/03 08:17:32;;;;;;;5.78;4.68;;;;;;;3.29;72.88;100314.13;5036863;28;20033;-54
2021/12/03 08:20:00;;;;;;;5.85;4.22;;;;;;;3.28;73.12;100338.44;5016854;28;20033;-53
2021/12/03 08:22:26;;;;;;;6.35;4.35;;;;;;;3.26;73.66;100334.03;5039861;28;20031;-54
2021/12/03 08:24:51;;;;;;;4.80;3.53;;;;;;;3.26;73.31;100341.88;5042449;28;20025;-54
2021/12/03 08:27:17;;;;;;;5.85;4.28;;;;;;;3.22;73.05;100327.91;5009890;28;20378;-53
2021/12/03 08:29:42;;;;;;;5.95;4.20;;;;;;;3.24;73.12;100327.94;5040577;28;20025;-54
2021/12/03 08:32:10;;;;;;;5.93;4.38;;;;;;;3.21;72.79;100334.84;5042191;28;20150;-53
2021/12/03 08:34:35;;;;;;;7.20;4.60;;;;;;;3.21;73.22;100334.84;5026275;28;20025;-54
2021/12/03 08:37:01;;;;;;;7.63;5.22;;;;;;;3.27;72.96;100328.00;5047664;28;20031;-54
2021/12/03 08:39:28;;;;;;;6.40;4.50;;;;;;;3.18;72.81;100321.78;5025017;28;20130;-54
2021/12/03 08:41:57;;;;;;;6.38;4.60;;;;;;;3.19;73.38;100307.91;5027243;28;20021;-54
2021/12/03 08:44:22;;;;;;;7.07;5.22;;;;;;;3.23;72.65;100318.38;5042779;28;20061;-53
2021/12/03 08:46:52;;;;;;;5.60;4.55;;;;;;;3.26;72.59;100337.53;5027856;28;20111;-53
2021/12/03 08:49:45;;;;;;;5.72;4.80;;;;;;;3.24;72.96;100325.34;5026986;28;20178;-54
2021/12/03 08:54:55;;;;;;;5.50;3.95;;;;;;;3.28;72.62;100325.41;5043918;28;20547;-54
2021/12/03 08:57:30;;;;;;;7.88;4.65;;;;;;;3.24;73.40;100326.22;5009367;28;20064;-54
2021/12/03 09:00:03;;;;;;;6.45;4.80;;;;;;;3.23;73.17;100323.59;5027929;28;20373;-53
2021/12/03 09:02:28;;;;;;;6.22;4.47;;;;;;;3.25;73.20;100332.28;5028905;28;20137;-53
2021/12/03 09:04:57;;;;;;;6.15;3.75;;;;;;;3.25;72.75;100338.41;5047854;28;20496;-54
2021/12/03 09:07:22;;;;;;;7.18;4.70;;;;;;;3.23;72.95;100345.31;5021440;28;20025;-54
2021/12/03 09:09:48;;;;;;;6.40;4.55;;;;;;;3.21;73.05;100336.59;5044885;28;20040;-54
2021/12/03 09:12:14;;;;;;;6.82;4.78;;;;;;;3.20;72.75;100340.03;5027825;28;20029;-53
2021/12/03 09:14:45;;;;;;;5.97;4.82;;;;;;;3.25;72.69;100354.03;5012705;28;20056;-53
2021/12/03 09:19:47;;;;;;;9.60;5.03;;;;;;;3.20;73.15;100361.78;5024336;28;19991;-54
2021/12/03 09:25:16;;;;;;;6.13;4.90;;;;;;;3.20;73.04;100373.91;5018736;28;20085;-53
2021/12/03 09:27:41;;;;;;;5.95;4.65;;;;;;;3.20;73.07;100371.31;5039277;28;20017;-52
2021/12/03 09:30:09;;;;;;;7.97;5.57;;;;;;;3.18;73.32;100365.22;5044536;28;20055;-53
2021/12/03 09:32:35;;;;;;;7.00;5.55;;;;;;;3.16;73.41;100359.97;5019516;28;20159;-54
2021/12/03 09:35:02;;;;;;;6.57;5.25;;;;;;;3.16;72.99;100359.97;5043379;28;20512;-53
2021/12/03 09:37:27;;;;;;;8.40;5.70;;;;;;;3.18;72.99;100360.88;5039613;28;20162;-54
2021/12/03 09:39:54;;;;;;;6.45;5.47;;;;;;;3.16;73.16;100356.47;5017668;28;20108;-53
2021/12/03 09:42:20;;;;;;;8.50;5.65;;;;;;;3.15;73.12;100358.22;5024221;28;20204;-51
2021/12/03 09:44:49;;;;;;;8.93;5.80;;;;;;;3.13;72.93;100359.06;5043146;28;20025;-53
2021/12/03 09:47:15;;;;;;;8.80;5.68;;;;;;;3.15;73.05;100353.00;5020077;28;20036;-53
2021/12/03 09:49:41;;;;;;;6.38;4.90;;;;;;;3.13;73.57;100348.63;5016073;28;20555;-53
2021/12/03 09:52:16;;;;;;;9.10;5.63;;;;;;;3.12;73.19;100342.53;5020956;28;20143;-53
2021/12/03 09:54:44;;;;;;;8.32;6.05;;;;;;;3.12;73.39;100341.66;5015382;28;20033;-54
2021/12/03 09:57:14;;;;;;;7.20;5.70;;;;;;;3.15;73.38;100350.41;5038546;28;20094;-53
2021/12/03 10:00:05;;;;;;;7.55;6.05;;;;;;;3.12;72.81;100347.75;5041291;28;20032;-54
2021/12/03 10:02:39;;;;;;;8.40;5.37;;;;;;;3.12;73.08;100346.84;5013058;28;20041;-54
2021/12/03 10:13:38;;;;;;;7.75;5.75;;;;;;;3.10;73.72;100349.44;5041589;28;20079;-53
2021/12/03 10:18:54;;;;;;;6.82;5.22;;;;;;;3.12;72.93;100337.31;5029109;28;20032;-54
2021/12/03 10:41:09;;;;;;;7.97;5.60;;;;;;;3.09;73.84;100295.56;5028192;28;20122;-53
2021/12/03 10:49:28;;;;;;;8.43;6.30;;;;;;;3.10;73.60;100286.88;5033376;28;20048;-53
2021/12/03 11:03:53;;;;;;;9.18;6.53;;;;;;;3.08;73.75;100257.34;5043817;28;20136;-54
2021/12/03 11:14:57;;;;;;;8.40;5.68;;;;;;;3.08;73.37;100252.13;5040796;28;20076;-54
2021/12/03 11:20:00;;;;;;;8.90;6.68;;;;;;;3.06;73.92;100246.91;5041691;28;20041;-53
2021/12/03 11:47:39;;;;;;;9.35;6.82;;;;;;;3.03;73.13;100218.19;5039865;28;20098;-51
2021/12/03 11:50:59;;;;;;;8.73;6.05;;;;;;;3.03;73.77;100218.19;5024661;28;20037;-51
2021/12/03 12:04:35;;;;;;;8.18;6.05;;;;;;;3.04;73.10;100208.66;5023655;28;20085;-52
2021/12/03 12:08:20;;;;;;;9.98;6.72;;;;;;;3.04;73.58;100211.25;5030602;28;20025;-52
2021/12/03 12:10:45;;;;;;;6.47;5.50;;;;;;;3.05;73.25;100205.19;5039252;28;20092;-54
2021/12/03 12:19:28;;;;;;;7.90;6.05;;;;;;;3.03;73.45;100215.56;5028325;28;20112;-53
2021/12/03 12:36:07;;;;;;;7.85;5.40;;;;;;;3.00;73.60;100206.84;5045055;28;20028;-51
2021/12/03 13:07:07;;;;;;;6.28;5.32;;;;;;;2.99;73.61;100189.44;5047039;28;20044;-51
2021/12/03 13:33:25;;;;;;;7.07;4.93;;;;;;;2.93;73.56;100149.44;5038378;28;20068;-52
2021/12/03 13:36:42;;;;;;;6.18;4.78;;;;;;;2.94;73.47;100156.38;5039633;28;20029;-52
2021/12/03 13:39:26;;;;;;;7.22;5.10;;;;;;;2.95;73.56;100155.56;5039502;28;20030;-52
2021/12/03 13:45:47;;;;;;;5.53;4.97;;;;;;;2.94;73.70;100145.97;4971975;28;20521;-51
2021/12/03 14:12:16;;;;;;;6.57;5.03;;;;;;;2.97;73.56;100145.16;4953974;28;20552;-51
2021/12/03 14:32:41;;;;;;;7.25;4.40;;;;;;;2.95;73.76;100142.53;5039227;28;20030;-53
2021/12/03 14:35:17;;;;;;;5.65;4.38;;;;;;;2.97;73.19;100139.06;5035169;28;20091;-52
2021/12/03 14:45:15;;;;;;;6.10;4.35;;;;;;;2.95;73.21;100128.63;5008801;28;20033;-52
2021/12/03 14:50:59;;;;;;;5.45;4.55;;;;;;;2.94;73.11;100113.84;5001716;28;20036;-52
2021/12/03 14:53:39;;;;;;;7.88;4.80;;;;;;;2.94;73.61;100106.88;5038688;28;20030;-54
2021/12/03 14:56:11;;;;;;;6.20;4.55;;;;;;;2.93;73.52;100112.97;5039324;28;20033;-54
2021/12/03 15:11:56;;;;;;;5.78;5.05;;;;;;;2.95;73.01;100108.66;5040298;28;20037;-51
2021/12/03 15:22:48;;;;;;;5.18;4.60;;;;;;;2.95;72.99;100100.84;5026415;28;20090;-51
2021/12/03 15:30:50;;;;;;;6.43;4.25;;;;;;;2.98;72.78;100096.50;5027333;28;20039;-54
2021/12/03 15:36:04;;;;;;;7.35;5.35;;;;;;;2.97;72.83;100074.81;5041566;28;20527;-53
2021/12/03 15:38:53;;;;;;;5.65;4.78;;;;;;;2.97;73.60;100071.31;5042233;28;20032;-54
2021/12/03 15:52:44;;;;;;;7.57;5.90;;;;;;;2.97;73.19;100073.94;5029110;28;20554;-53
2021/12/03 16:19:02;;;;;;;6.15;4.60;;;;;;;2.94;73.27;100035.69;5040553;28;20044;-51
2021/12/03 16:45:49;;;;;;;7.28;5.05;;;;;;;2.92;73.58;100051.31;5039731;28;20079;-52
2021/12/03 16:53:11;;;;;;;5.97;5.47;;;;;;;2.97;72.76;100055.69;5044100;28;20029;-51
2021/12/03 16:55:36;;;;;;;5.90;5.20;;;;;;;2.94;73.34;100057.41;5045987;28;20565;-51
2021/12/03 16:58:01;;;;;;;7.70;5.60;;;;;;;2.93;73.28;100058.25;5045783;28;20021;-51
2021/12/03 17:00:38;;;;;;;6.03;5.38;;;;;;;2.94;73.74;100048.72;5046464;28;20029;-53
2021/12/03 17:03:26;;;;;;;6.80;5.65;;;;;;;2.93;73.55;100049.56;5049266;28;20416;-52
2021/12/03 17:08:51;;;;;;;6.85;5.65;;;;;;;2.91;73.68;100066.91;5039630;28;20122;-51